sensor_id;sensor_type;location;lat;lon;timestamp;P1;durP1;ratioP1;P2;durP2;ratioP2
23617;SDS011;18207;32.078;34.818;2023-07-29T00:00:00;1.55;;;1.40;;
23617;SDS011;18207;32.078;34.818;2023-07-29T00:02:30;1.60;;;1.50;;
23617;SDS011;18207;32.078;34.818;2023-07-29T00:05:00;1.33;;;1.33;;
23617;SDS011;18207;32.078;34.818;2023-07-29T00:07:31;1.48;;;1.40;;
23617;SDS011;18207;32.078;34.818;2023-07-29T00:10:01;1.52;;;1.45;;
23617;SDS011;18207;32.078;34.818;2023-07-29T00:12:33;1.85;;;1.75;;
23617;SDS011;18207;32.078;34.818;2023-07-29T00:15:08;1.65;;;1.55;;
23617;SDS011;18207;32.078;34.818;2023-07-29T00:17:39;1.73;;;1.63;;
23617;SDS011;18207;32.078;34.818;2023-07-29T00:20:10;1.80;;;1.65;;
23617;SDS011;18207;32.078;34.818;2023-07-29T00:22:41;1.92;;;1.83;;
23617;SDS011;18207;32.078;34.818;2023-07-29T00:25:11;1.95;;;1.85;;
23617;SDS011;18207;32.078;34.818;2023-07-29T00:27:43;1.90;;;1.80;;
23617;SDS011;18207;32.078;34.818;2023-07-29T00:30:13;2.20;;;2.00;;
23617;SDS011;18207;32.078;34.818;2023-07-29T00:32:43;2.58;;;2.10;;
23617;SDS011;18207;32.078;34.818;2023-07-29T00:35:14;2.22;;;2.03;;
23617;SDS011;18207;32.078;34.818;2023-07-29T00:37:44;2.30;;;2.10;;
23617;SDS011;18207;32.078;34.818;2023-07-29T00:40:16;2.05;;;1.85;;
23617;SDS011;18207;32.078;34.818;2023-07-29T00:42:52;2.00;;;1.90;;
23617;SDS011;18207;32.078;34.818;2023-07-29T00:45:23;2.30;;;2.10;;
23617;SDS011;18207;32.078;34.818;2023-07-29T00:47:55;2.05;;;1.95;;
23617;SDS011;18207;32.078;34.818;2023-07-29T00:50:27;2.10;;;1.98;;
23617;SDS011;18207;32.078;34.818;2023-07-29T00:52:59;1.90;;;1.80;;
23617;SDS011;18207;32.078;34.818;2023-07-29T00:55:30;2.10;;;2.00;;
23617;SDS011;18207;32.078;34.818;2023-07-29T00:58:03;2.00;;;1.90;;
23617;SDS011;18207;32.078;34.818;2023-07-29T01:00:33;2.22;;;2.03;;
23617;SDS011;18207;32.078;34.818;2023-07-29T01:03:05;2.20;;;2.00;;
23617;SDS011;18207;32.078;34.818;2023-07-29T01:05:38;2.20;;;2.00;;
23617;SDS011;18207;32.078;34.818;2023-07-29T01:08:26;2.03;;;1.92;;
23617;SDS011;18207;32.078;34.818;2023-07-29T01:11:10;1.90;;;1.80;;
23617;SDS011;18207;32.078;34.818;2023-07-29T01:13:58;2.55;;;2.10;;
23617;SDS011;18207;32.078;34.818;2023-07-29T01:16:39;2.10;;;2.00;;
23617;SDS011;18207;32.078;34.818;2023-07-29T01:19:17;1.90;;;1.80;;
23617;SDS011;18207;32.078;34.818;2023-07-29T01:22:12;1.77;;;1.67;;
23617;SDS011;18207;32.078;34.818;2023-07-29T01:24:46;2.60;;;2.08;;
23617;SDS011;18207;32.078;34.818;2023-07-29T01:27:17;1.92;;;1.83;;
23617;SDS011;18207;32.078;34.818;2023-07-29T01:29:47;2.10;;;2.00;;
23617;SDS011;18207;32.078;34.818;2023-07-29T01:32:19;2.15;;;1.83;;
23617;SDS011;18207;32.078;34.818;2023-07-29T01:34:59;2.03;;;1.90;;
23617;SDS011;18207;32.078;34.818;2023-07-29T01:37:40;2.13;;;2.03;;
23617;SDS011;18207;32.078;34.818;2023-07-29T01:40:19;2.05;;;1.95;;
23617;SDS011;18207;32.078;34.818;2023-07-29T01:42:51;2.08;;;1.98;;
23617;SDS011;18207;32.078;34.818;2023-07-29T01:45:23;2.00;;;1.90;;
23617;SDS011;18207;32.078;34.818;2023-07-29T01:47:54;1.88;;;1.77;;
23617;SDS011;18207;32.078;34.818;2023-07-29T01:50:25;2.20;;;2.00;;
23617;SDS011;18207;32.078;34.818;2023-07-29T01:52:55;2.13;;;2.00;;
23617;SDS011;18207;32.078;34.818;2023-07-29T01:55:28;2.03;;;1.92;;
23617;SDS011;18207;32.078;34.818;2023-07-29T01:57:59;2.03;;;1.92;;
23617;SDS011;18207;32.078;34.818;2023-07-29T02:00:29;1.95;;;1.73;;
23617;SDS011;18207;32.078;34.818;2023-07-29T02:02:59;2.17;;;1.98;;
23617;SDS011;18207;32.078;34.818;2023-07-29T02:05:30;2.17;;;2.00;;
23617;SDS011;18207;32.078;34.818;2023-07-29T02:08:00;2.58;;;2.10;;
23617;SDS011;18207;32.078;34.818;2023-07-29T02:10:33;2.38;;;2.17;;
23617;SDS011;18207;32.078;34.818;2023-07-29T02:13:04;2.22;;;1.80;;
23617;SDS011;18207;32.078;34.818;2023-07-29T02:15:34;1.95;;;1.85;;
23617;SDS011;18207;32.078;34.818;2023-07-29T02:18:04;2.28;;;2.10;;
23617;SDS011;18207;32.078;34.818;2023-07-29T02:20:34;1.88;;;1.77;;
23617;SDS011;18207;32.078;34.818;2023-07-29T02:23:04;2.88;;;2.25;;
23617;SDS011;18207;32.078;34.818;2023-07-29T02:25:37;2.22;;;2.03;;
23617;SDS011;18207;32.078;34.818;2023-07-29T02:28:07;2.30;;;2.10;;
23617;SDS011;18207;32.078;34.818;2023-07-29T02:30:40;1.92;;;1.83;;
23617;SDS011;18207;32.078;34.818;2023-07-29T02:33:12;2.13;;;1.92;;
23617;SDS011;18207;32.078;34.818;2023-07-29T02:35:43;2.10;;;2.00;;
23617;SDS011;18207;32.078;34.818;2023-07-29T02:38:14;1.90;;;1.80;;
23617;SDS011;18207;32.078;34.818;2023-07-29T02:40:45;2.00;;;1.90;;
23617;SDS011;18207;32.078;34.818;2023-07-29T02:43:16;2.17;;;2.00;;
23617;SDS011;18207;32.078;34.818;2023-07-29T02:45:46;2.25;;;1.88;;
23617;SDS011;18207;32.078;34.818;2023-07-29T02:48:24;1.95;;;1.85;;
23617;SDS011;18207;32.078;34.818;2023-07-29T02:50:55;2.13;;;1.92;;
23617;SDS011;18207;32.078;34.818;2023-07-29T02:53:25;2.10;;;2.00;;
23617;SDS011;18207;32.078;34.818;2023-07-29T02:55:57;1.92;;;1.83;;
23617;SDS011;18207;32.078;34.818;2023-07-29T02:58:27;1.85;;;1.75;;
23617;SDS011;18207;32.078;34.818;2023-07-29T03:01:00;2.13;;;1.95;;
23617;SDS011;18207;32.078;34.818;2023-07-29T03:03:30;2.28;;;1.77;;
23617;SDS011;18207;32.078;34.818;2023-07-29T03:06:04;1.90;;;1.80;;
23617;SDS011;18207;32.078;34.818;2023-07-29T03:08:37;2.05;;;1.92;;
23617;SDS011;18207;32.078;34.818;2023-07-29T03:11:10;2.15;;;1.95;;
23617;SDS011;18207;32.078;34.818;2023-07-29T03:13:42;1.98;;;1.88;;
23617;SDS011;18207;32.078;34.818;2023-07-29T03:16:14;1.98;;;1.85;;
23617;SDS011;18207;32.078;34.818;2023-07-29T03:18:45;2.08;;;1.98;;
23617;SDS011;18207;32.078;34.818;2023-07-29T03:21:18;1.90;;;1.80;;
23617;SDS011;18207;32.078;34.818;2023-07-29T03:23:49;1.90;;;1.70;;
23617;SDS011;18207;32.078;34.818;2023-07-29T03:26:21;2.38;;;1.85;;
23617;SDS011;18207;32.078;34.818;2023-07-29T03:28:52;2.00;;;1.90;;
23617;SDS011;18207;32.078;34.818;2023-07-29T03:31:23;1.80;;;1.70;;
23617;SDS011;18207;32.078;34.818;2023-07-29T03:33:53;1.80;;;1.70;;
23617;SDS011;18207;32.078;34.818;2023-07-29T03:36:24;2.00;;;1.80;;
23617;SDS011;18207;32.078;34.818;2023-07-29T03:38:54;2.40;;;1.80;;
23617;SDS011;18207;32.078;34.818;2023-07-29T03:41:27;1.90;;;1.80;;
23617;SDS011;18207;32.078;34.818;2023-07-29T03:43:58;2.10;;;2.00;;
23617;SDS011;18207;32.078;34.818;2023-07-29T03:46:28;1.80;;;1.70;;
23617;SDS011;18207;32.078;34.818;2023-07-29T03:48:59;2.05;;;1.85;;
23617;SDS011;18207;32.078;34.818;2023-07-29T03:51:30;2.17;;;1.98;;
23617;SDS011;18207;32.078;34.818;2023-07-29T03:54:00;1.80;;;1.70;;
23617;SDS011;18207;32.078;34.818;2023-07-29T03:56:32;2.10;;;2.00;;
23617;SDS011;18207;32.078;34.818;2023-07-29T03:59:03;2.22;;;2.03;;
23617;SDS011;18207;32.078;34.818;2023-07-29T04:01:34;1.92;;;1.83;;
23617;SDS011;18207;32.078;34.818;2023-07-29T04:04:04;2.00;;;1.90;;
23617;SDS011;18207;32.078;34.818;2023-07-29T04:06:35;2.10;;;2.00;;
23617;SDS011;18207;32.078;34.818;2023-07-29T04:09:05;2.00;;;1.90;;
23617;SDS011;18207;32.078;34.818;2023-07-29T04:11:38;1.98;;;1.88;;
23617;SDS011;18207;32.078;34.818;2023-07-29T04:14:08;2.33;;;1.90;;
23617;SDS011;18207;32.078;34.818;2023-07-29T04:16:39;2.20;;;2.00;;
23617;SDS011;18207;32.078;34.818;2023-07-29T04:19:09;2.42;;;2.17;;
23617;SDS011;18207;32.078;34.818;2023-07-29T04:21:40;2.00;;;1.90;;
23617;SDS011;18207;32.078;34.818;2023-07-29T04:24:10;1.75;;;1.65;;
23617;SDS011;18207;32.078;34.818;2023-07-29T04:26:43;1.95;;;1.85;;
23617;SDS011;18207;32.078;34.818;2023-07-29T04:29:14;2.00;;;1.90;;
23617;SDS011;18207;32.078;34.818;2023-07-29T04:31:44;2.00;;;1.90;;
23617;SDS011;18207;32.078;34.818;2023-07-29T04:34:15;2.00;;;1.90;;
23617;SDS011;18207;32.078;34.818;2023-07-29T04:36:46;1.88;;;1.77;;
23617;SDS011;18207;32.078;34.818;2023-07-29T04:39:16;1.95;;;1.85;;
23617;SDS011;18207;32.078;34.818;2023-07-29T04:41:49;2.00;;;1.90;;
23617;SDS011;18207;32.078;34.818;2023-07-29T04:44:19;1.80;;;1.70;;
23617;SDS011;18207;32.078;34.818;2023-07-29T04:46:50;1.98;;;1.88;;
23617;SDS011;18207;32.078;34.818;2023-07-29T04:49:20;2.03;;;1.90;;
23617;SDS011;18207;32.078;34.818;2023-07-29T04:51:51;1.90;;;1.80;;
23617;SDS011;18207;32.078;34.818;2023-07-29T04:54:22;1.73;;;1.63;;
23617;SDS011;18207;32.078;34.818;2023-07-29T04:56:54;1.92;;;1.83;;
23617;SDS011;18207;32.078;34.818;2023-07-29T04:59:25;1.58;;;1.48;;
23617;SDS011;18207;32.078;34.818;2023-07-29T05:01:55;1.77;;;1.65;;
23617;SDS011;18207;32.078;34.818;2023-07-29T05:04:26;1.75;;;1.65;;
23617;SDS011;18207;32.078;34.818;2023-07-29T05:06:57;1.85;;;1.75;;
23617;SDS011;18207;32.078;34.818;2023-07-29T05:09:27;1.60;;;1.52;;
23617;SDS011;18207;32.078;34.818;2023-07-29T05:12:00;1.80;;;1.70;;
23617;SDS011;18207;32.078;34.818;2023-07-29T05:14:30;1.80;;;1.70;;
23617;SDS011;18207;32.078;34.818;2023-07-29T05:17:01;1.92;;;1.80;;
23617;SDS011;18207;32.078;34.818;2023-07-29T05:19:31;1.80;;;1.70;;
23617;SDS011;18207;32.078;34.818;2023-07-29T05:22:02;1.88;;;1.77;;
23617;SDS011;18207;32.078;34.818;2023-07-29T05:24:32;1.90;;;1.80;;
23617;SDS011;18207;32.078;34.818;2023-07-29T05:27:05;1.95;;;1.85;;
23617;SDS011;18207;32.078;34.818;2023-07-29T05:29:35;1.70;;;1.60;;
23617;SDS011;18207;32.078;34.818;2023-07-29T05:32:06;1.70;;;1.60;;
23617;SDS011;18207;32.078;34.818;2023-07-29T05:34:36;1.85;;;1.75;;
23617;SDS011;18207;32.078;34.818;2023-07-29T05:37:06;1.92;;;1.83;;
23617;SDS011;18207;32.078;34.818;2023-07-29T05:39:37;1.73;;;1.63;;
23617;SDS011;18207;32.078;34.818;2023-07-29T05:42:10;2.08;;;1.63;;
23617;SDS011;18207;32.078;34.818;2023-07-29T05:44:40;1.80;;;1.70;;
23617;SDS011;18207;32.078;34.818;2023-07-29T05:47:10;2.00;;;1.90;;
23617;SDS011;18207;32.078;34.818;2023-07-29T05:49:41;1.90;;;1.80;;
23617;SDS011;18207;32.078;34.818;2023-07-29T05:52:11;1.83;;;1.73;;
23617;SDS011;18207;32.078;34.818;2023-07-29T05:54:41;1.58;;;1.52;;
23617;SDS011;18207;32.078;34.818;2023-07-29T05:57:14;1.80;;;1.70;;
23617;SDS011;18207;32.078;34.818;2023-07-29T05:59:44;1.60;;;1.50;;
23617;SDS011;18207;32.078;34.818;2023-07-29T06:02:15;1.60;;;1.50;;
23617;SDS011;18207;32.078;34.818;2023-07-29T06:04:45;1.73;;;1.63;;
23617;SDS011;18207;32.078;34.818;2023-07-29T06:07:16;1.95;;;1.85;;
23617;SDS011;18207;32.078;34.818;2023-07-29T06:09:46;1.77;;;1.67;;
23617;SDS011;18207;32.078;34.818;2023-07-29T06:12:19;1.92;;;1.83;;
23617;SDS011;18207;32.078;34.818;2023-07-29T06:14:48;1.63;;;1.52;;
23617;SDS011;18207;32.078;34.818;2023-07-29T06:17:19;1.77;;;1.67;;
23617;SDS011;18207;32.078;34.818;2023-07-29T06:19:49;1.83;;;1.73;;
23617;SDS011;18207;32.078;34.818;2023-07-29T06:22:20;2.00;;;1.90;;
23617;SDS011;18207;32.078;34.818;2023-07-29T06:24:50;1.48;;;1.42;;
23617;SDS011;18207;32.078;34.818;2023-07-29T06:27:23;1.60;;;1.50;;
23617;SDS011;18207;32.078;34.818;2023-07-29T06:29:54;1.73;;;1.63;;
23617;SDS011;18207;32.078;34.818;2023-07-29T06:32:28;1.60;;;1.50;;
23617;SDS011;18207;32.078;34.818;2023-07-29T06:34:59;1.80;;;1.70;;
23617;SDS011;18207;32.078;34.818;2023-07-29T06:37:29;1.90;;;1.80;;
23617;SDS011;18207;32.078;34.818;2023-07-29T06:40:00;1.80;;;1.70;;
23617;SDS011;18207;32.078;34.818;2023-07-29T06:42:32;1.88;;;1.77;;
23617;SDS011;18207;32.078;34.818;2023-07-29T06:45:04;2.40;;;1.70;;
23617;SDS011;18207;32.078;34.818;2023-07-29T06:47:36;1.70;;;1.60;;
23617;SDS011;18207;32.078;34.818;2023-07-29T06:50:06;1.60;;;1.50;;
23617;SDS011;18207;32.078;34.818;2023-07-29T06:52:38;2.40;;;1.80;;
23617;SDS011;18207;32.078;34.818;2023-07-29T06:55:08;1.52;;;1.50;;
23617;SDS011;18207;32.078;34.818;2023-07-29T06:57:40;1.50;;;1.40;;
23617;SDS011;18207;32.078;34.818;2023-07-29T07:00:10;1.60;;;1.50;;
23617;SDS011;18207;32.078;34.818;2023-07-29T07:02:41;1.42;;;1.33;;
23617;SDS011;18207;32.078;34.818;2023-07-29T07:05:11;1.60;;;1.50;;
23617;SDS011;18207;32.078;34.818;2023-07-29T07:07:42;1.60;;;1.50;;
23617;SDS011;18207;32.078;34.818;2023-07-29T07:10:12;1.58;;;1.48;;
23617;SDS011;18207;32.078;34.818;2023-07-29T07:12:45;1.92;;;1.83;;
23617;SDS011;18207;32.078;34.818;2023-07-29T07:15:15;1.90;;;1.80;;
23617;SDS011;18207;32.078;34.818;2023-07-29T07:17:46;1.60;;;1.50;;
23617;SDS011;18207;32.078;34.818;2023-07-29T07:20:16;1.60;;;1.50;;
23617;SDS011;18207;32.078;34.818;2023-07-29T07:22:47;1.80;;;1.70;;
23617;SDS011;18207;32.078;34.818;2023-07-29T07:25:18;1.75;;;1.65;;
23617;SDS011;18207;32.078;34.818;2023-07-29T07:27:50;1.60;;;1.50;;
23617;SDS011;18207;32.078;34.818;2023-07-29T07:30:21;1.70;;;1.60;;
23617;SDS011;18207;32.078;34.818;2023-07-29T07:32:51;1.92;;;1.73;;
23617;SDS011;18207;32.078;34.818;2023-07-29T07:35:22;1.75;;;1.65;;
23617;SDS011;18207;32.078;34.818;2023-07-29T07:37:52;1.95;;;1.85;;
23617;SDS011;18207;32.078;34.818;2023-07-29T07:40:23;2.00;;;1.90;;
23617;SDS011;18207;32.078;34.818;2023-07-29T07:42:56;1.90;;;1.80;;
23617;SDS011;18207;32.078;34.818;2023-07-29T07:45:26;1.80;;;1.70;;
23617;SDS011;18207;32.078;34.818;2023-07-29T07:47:56;2.13;;;1.90;;
23617;SDS011;18207;32.078;34.818;2023-07-29T07:50:29;1.90;;;1.80;;
23617;SDS011;18207;32.078;34.818;2023-07-29T07:52:59;2.20;;;2.10;;
23617;SDS011;18207;32.078;34.818;2023-07-29T07:55:30;2.05;;;1.95;;
23617;SDS011;18207;32.078;34.818;2023-07-29T07:58:03;2.20;;;2.00;;
23617;SDS011;18207;32.078;34.818;2023-07-29T08:00:33;1.90;;;1.80;;
23617;SDS011;18207;32.078;34.818;2023-07-29T08:03:04;1.40;;;1.30;;
23617;SDS011;18207;32.078;34.818;2023-07-29T08:05:34;1.83;;;1.67;;
23617;SDS011;18207;32.078;34.818;2023-07-29T08:08:04;1.90;;;1.80;;
23617;SDS011;18207;32.078;34.818;2023-07-29T08:10:35;1.80;;;1.70;;
23617;SDS011;18207;32.078;34.818;2023-07-29T08:13:07;1.85;;;1.70;;
23617;SDS011;18207;32.078;34.818;2023-07-29T08:15:37;1.85;;;1.75;;
23617;SDS011;18207;32.078;34.818;2023-07-29T08:18:08;1.80;;;1.70;;
23617;SDS011;18207;32.078;34.818;2023-07-29T08:20:39;2.17;;;1.63;;
23617;SDS011;18207;32.078;34.818;2023-07-29T08:23:09;1.77;;;1.67;;
23617;SDS011;18207;32.078;34.818;2023-07-29T08:25:39;1.70;;;1.60;;
23617;SDS011;18207;32.078;34.818;2023-07-29T08:28:11;1.70;;;1.60;;
23617;SDS011;18207;32.078;34.818;2023-07-29T08:30:40;1.80;;;1.55;;
23617;SDS011;18207;32.078;34.818;2023-07-29T08:33:11;1.45;;;1.35;;
23617;SDS011;18207;32.078;34.818;2023-07-29T08:35:41;1.80;;;1.70;;
23617;SDS011;18207;32.078;34.818;2023-07-29T08:38:11;1.73;;;1.63;;
23617;SDS011;18207;32.078;34.818;2023-07-29T08:40:42;2.13;;;1.90;;
23617;SDS011;18207;32.078;34.818;2023-07-29T08:43:24;1.80;;;1.60;;
23617;SDS011;18207;32.078;34.818;2023-07-29T08:45:59;2.17;;;1.80;;
23617;SDS011;18207;32.078;34.818;2023-07-29T08:48:31;1.83;;;1.70;;
23617;SDS011;18207;32.078;34.818;2023-07-29T08:51:10;2.08;;;1.70;;
23617;SDS011;18207;32.078;34.818;2023-07-29T08:53:42;1.60;;;1.50;;
23617;SDS011;18207;32.078;34.818;2023-07-29T08:56:13;1.65;;;1.50;;
23617;SDS011;18207;32.078;34.818;2023-07-29T08:58:46;2.00;;;1.70;;
23617;SDS011;18207;32.078;34.818;2023-07-29T09:01:18;1.70;;;1.60;;
23617;SDS011;18207;32.078;34.818;2023-07-29T09:03:49;2.45;;;1.58;;
23617;SDS011;18207;32.078;34.818;2023-07-29T09:06:21;1.75;;;1.48;;
23617;SDS011;18207;32.078;34.818;2023-07-29T09:08:55;2.00;;;1.80;;
23617;SDS011;18207;32.078;34.818;2023-07-29T09:11:25;1.50;;;1.40;;
23617;SDS011;18207;32.078;34.818;2023-07-29T09:13:59;2.35;;;1.50;;
23617;SDS011;18207;32.078;34.818;2023-07-29T09:16:29;1.80;;;1.70;;
23617;SDS011;18207;32.078;34.818;2023-07-29T09:19:02;2.47;;;1.88;;
23617;SDS011;18207;32.078;34.818;2023-07-29T09:21:33;1.90;;;1.52;;
23617;SDS011;18207;32.078;34.818;2023-07-29T09:24:07;1.73;;;1.50;;
23617;SDS011;18207;32.078;34.818;2023-07-29T09:26:38;2.00;;;1.88;;
23617;SDS011;18207;32.078;34.818;2023-07-29T09:29:22;1.48;;;1.38;;
23617;SDS011;18207;32.078;34.818;2023-07-29T09:31:53;1.80;;;1.60;;
23617;SDS011;18207;32.078;34.818;2023-07-29T09:34:41;1.70;;;1.60;;
23617;SDS011;18207;32.078;34.818;2023-07-29T09:37:15;3.45;;;1.70;;
23617;SDS011;18207;32.078;34.818;2023-07-29T09:39:47;2.42;;;1.48;;
23617;SDS011;18207;32.078;34.818;2023-07-29T09:42:19;1.63;;;1.45;;
23617;SDS011;18207;32.078;34.818;2023-07-29T09:44:53;1.48;;;1.38;;
23617;SDS011;18207;32.078;34.818;2023-07-29T09:47:25;1.65;;;1.55;;
23617;SDS011;18207;32.078;34.818;2023-07-29T09:49:56;1.90;;;1.58;;
23617;SDS011;18207;32.078;34.818;2023-07-29T09:52:29;1.50;;;1.40;;
23617;SDS011;18207;32.078;34.818;2023-07-29T09:55:00;1.80;;;1.63;;
23617;SDS011;18207;32.078;34.818;2023-07-29T09:57:30;1.55;;;1.45;;
23617;SDS011;18207;32.078;34.818;2023-07-29T10:00:03;1.73;;;1.63;;
23617;SDS011;18207;32.078;34.818;2023-07-29T10:02:38;2.35;;;1.40;;
23617;SDS011;18207;32.078;34.818;2023-07-29T10:05:11;1.30;;;1.20;;
23617;SDS011;18207;32.078;34.818;2023-07-29T10:07:42;1.73;;;1.45;;
23617;SDS011;18207;32.078;34.818;2023-07-29T10:10:15;1.55;;;1.45;;
23617;SDS011;18207;32.078;34.818;2023-07-29T10:12:46;2.03;;;1.85;;
23617;SDS011;18207;32.078;34.818;2023-07-29T10:15:20;1.55;;;1.30;;
23617;SDS011;18207;32.078;34.818;2023-07-29T10:17:51;1.63;;;1.52;;
23617;SDS011;18207;32.078;34.818;2023-07-29T10:20:22;1.40;;;1.30;;
23617;SDS011;18207;32.078;34.818;2023-07-29T10:22:53;1.60;;;1.50;;
23617;SDS011;18207;32.078;34.818;2023-07-29T10:25:30;1.77;;;1.63;;
23617;SDS011;18207;32.078;34.818;2023-07-29T10:28:08;1.58;;;1.40;;
23617;SDS011;18207;32.078;34.818;2023-07-29T10:30:46;1.67;;;1.30;;
23617;SDS011;18207;32.078;34.818;2023-07-29T10:33:18;1.67;;;1.48;;
23617;SDS011;18207;32.078;34.818;2023-07-29T10:35:50;1.67;;;1.40;;
23617;SDS011;18207;32.078;34.818;2023-07-29T10:38:22;1.83;;;1.45;;
23617;SDS011;18207;32.078;34.818;2023-07-29T10:40:55;1.60;;;1.50;;
23617;SDS011;18207;32.078;34.818;2023-07-29T10:43:31;1.85;;;1.70;;
23617;SDS011;18207;32.078;34.818;2023-07-29T10:49:05;1.80;;;1.42;;
23617;SDS011;18207;32.078;34.818;2023-07-29T10:51:35;2.03;;;1.70;;
23617;SDS011;18207;32.078;34.818;2023-07-29T10:54:10;1.70;;;1.35;;
23617;SDS011;18207;32.078;34.818;2023-07-29T10:56:42;1.55;;;1.40;;
23617;SDS011;18207;32.078;34.818;2023-07-29T10:59:31;1.92;;;1.30;;
23617;SDS011;18207;32.078;34.818;2023-07-29T11:02:11;1.40;;;1.30;;
23617;SDS011;18207;32.078;34.818;2023-07-29T11:04:56;2.03;;;1.40;;
23617;SDS011;18207;32.078;34.818;2023-07-29T11:07:27;2.88;;;1.63;;
23617;SDS011;18207;32.078;34.818;2023-07-29T11:10:00;1.20;;;1.20;;
23617;SDS011;18207;32.078;34.818;2023-07-29T11:15:22;1.45;;;1.23;;
23617;SDS011;18207;32.078;34.818;2023-07-29T11:17:58;1.48;;;1.38;;
23617;SDS011;18207;32.078;34.818;2023-07-29T11:20:30;1.33;;;1.23;;
23617;SDS011;18207;32.078;34.818;2023-07-29T11:23:02;1.35;;;1.25;;
23617;SDS011;18207;32.078;34.818;2023-07-29T11:25:44;1.55;;;1.20;;
23617;SDS011;18207;32.078;34.818;2023-07-29T11:28:18;1.33;;;1.23;;
23617;SDS011;18207;32.078;34.818;2023-07-29T11:30:49;1.15;;;1.15;;
23617;SDS011;18207;32.078;34.818;2023-07-29T11:33:23;1.50;;;1.40;;
23617;SDS011;18207;32.078;34.818;2023-07-29T11:35:55;1.45;;;1.35;;
23617;SDS011;18207;32.078;34.818;2023-07-29T11:38:25;1.60;;;1.50;;
23617;SDS011;18207;32.078;34.818;2023-07-29T11:40:59;1.27;;;1.17;;
23617;SDS011;18207;32.078;34.818;2023-07-29T11:43:34;1.63;;;1.40;;
23617;SDS011;18207;32.078;34.818;2023-07-29T11:46:05;1.50;;;1.40;;
23617;SDS011;18207;32.078;34.818;2023-07-29T11:48:37;1.45;;;1.30;;
23617;SDS011;18207;32.078;34.818;2023-07-29T11:51:07;1.38;;;1.27;;
23617;SDS011;18207;32.078;34.818;2023-07-29T11:53:39;1.40;;;1.30;;
23617;SDS011;18207;32.078;34.818;2023-07-29T11:56:11;1.42;;;1.33;;
23617;SDS011;18207;32.078;34.818;2023-07-29T11:58:42;1.45;;;1.35;;
23617;SDS011;18207;32.078;34.818;2023-07-29T12:01:12;1.45;;;1.38;;
23617;SDS011;18207;32.078;34.818;2023-07-29T12:03:45;1.75;;;1.60;;
23617;SDS011;18207;32.078;34.818;2023-07-29T12:06:16;1.27;;;1.17;;
23617;SDS011;18207;32.078;34.818;2023-07-29T12:08:47;1.60;;;1.50;;
23617;SDS011;18207;32.078;34.818;2023-07-29T12:11:19;1.30;;;1.20;;
23617;SDS011;18207;32.078;34.818;2023-07-29T12:13:53;1.15;;;1.15;;
23617;SDS011;18207;32.078;34.818;2023-07-29T12:16:23;1.20;;;1.20;;
23617;SDS011;18207;32.078;34.818;2023-07-29T12:18:56;1.63;;;1.50;;
23617;SDS011;18207;32.078;34.818;2023-07-29T12:21:29;1.40;;;1.30;;
23617;SDS011;18207;32.078;34.818;2023-07-29T12:24:02;1.50;;;1.40;;
23617;SDS011;18207;32.078;34.818;2023-07-29T12:26:33;1.10;;;1.10;;
23617;SDS011;18207;32.078;34.818;2023-07-29T12:29:11;1.70;;;1.50;;
23617;SDS011;18207;32.078;34.818;2023-07-29T12:31:41;1.70;;;1.30;;
23617;SDS011;18207;32.078;34.818;2023-07-29T12:34:18;1.40;;;1.30;;
23617;SDS011;18207;32.078;34.818;2023-07-29T12:36:50;1.60;;;1.42;;
23617;SDS011;18207;32.078;34.818;2023-07-29T12:39:23;1.50;;;1.40;;
23617;SDS011;18207;32.078;34.818;2023-07-29T12:41:56;1.40;;;1.30;;
23617;SDS011;18207;32.078;34.818;2023-07-29T12:44:28;1.20;;;1.20;;
23617;SDS011;18207;32.078;34.818;2023-07-29T12:47:01;1.63;;;1.30;;
23617;SDS011;18207;32.078;34.818;2023-07-29T12:49:35;1.50;;;1.40;;
23617;SDS011;18207;32.078;34.818;2023-07-29T12:52:06;1.27;;;1.15;;
23617;SDS011;18207;32.078;34.818;2023-07-29T12:54:36;1.50;;;1.40;;
23617;SDS011;18207;32.078;34.818;2023-07-29T12:57:07;1.40;;;1.30;;
23617;SDS011;18207;32.078;34.818;2023-07-29T12:59:37;1.40;;;1.30;;
23617;SDS011;18207;32.078;34.818;2023-07-29T13:02:07;1.17;;;1.08;;
23617;SDS011;18207;32.078;34.818;2023-07-29T13:04:39;1.23;;;1.20;;
23617;SDS011;18207;32.078;34.818;2023-07-29T13:07:10;1.52;;;1.30;;
23617;SDS011;18207;32.078;34.818;2023-07-29T13:09:41;1.45;;;1.35;;
23617;SDS011;18207;32.078;34.818;2023-07-29T13:12:12;1.35;;;1.25;;
23617;SDS011;18207;32.078;34.818;2023-07-29T13:14:42;1.67;;;1.58;;
23617;SDS011;18207;32.078;34.818;2023-07-29T13:17:12;1.40;;;1.30;;
23617;SDS011;18207;32.078;34.818;2023-07-29T13:19:44;1.45;;;1.40;;
23617;SDS011;18207;32.078;34.818;2023-07-29T13:22:14;1.40;;;1.30;;
23617;SDS011;18207;32.078;34.818;2023-07-29T13:24:45;1.50;;;1.40;;
23617;SDS011;18207;32.078;34.818;2023-07-29T13:27:16;1.17;;;1.17;;
23617;SDS011;18207;32.078;34.818;2023-07-29T13:29:46;1.27;;;1.17;;
23617;SDS011;18207;32.078;34.818;2023-07-29T13:32:16;1.40;;;1.25;;
23617;SDS011;18207;32.078;34.818;2023-07-29T13:34:48;1.50;;;1.40;;
23617;SDS011;18207;32.078;34.818;2023-07-29T13:37:19;1.40;;;1.30;;
23617;SDS011;18207;32.078;34.818;2023-07-29T13:39:49;1.45;;;1.35;;
23617;SDS011;18207;32.078;34.818;2023-07-29T13:42:20;1.42;;;1.33;;
23617;SDS011;18207;32.078;34.818;2023-07-29T13:44:51;1.25;;;1.20;;
23617;SDS011;18207;32.078;34.818;2023-07-29T13:47:21;1.58;;;1.30;;
23617;SDS011;18207;32.078;34.818;2023-07-29T13:49:53;1.42;;;1.30;;
23617;SDS011;18207;32.078;34.818;2023-07-29T13:52:23;1.17;;;1.10;;
23617;SDS011;18207;32.078;34.818;2023-07-29T13:54:53;1.20;;;1.15;;
23617;SDS011;18207;32.078;34.818;2023-07-29T13:57:23;1.10;;;1.10;;
23617;SDS011;18207;32.078;34.818;2023-07-29T13:59:54;1.20;;;1.20;;
23617;SDS011;18207;32.078;34.818;2023-07-29T14:02:24;1.25;;;1.15;;
23617;SDS011;18207;32.078;34.818;2023-07-29T14:04:57;1.35;;;1.25;;
23617;SDS011;18207;32.078;34.818;2023-07-29T14:07:28;1.30;;;1.20;;
23617;SDS011;18207;32.078;34.818;2023-07-29T14:09:58;1.50;;;1.40;;
23617;SDS011;18207;32.078;34.818;2023-07-29T14:12:28;1.45;;;1.35;;
23617;SDS011;18207;32.078;34.818;2023-07-29T14:14:59;1.50;;;1.40;;
23617;SDS011;18207;32.078;34.818;2023-07-29T14:17:30;1.65;;;1.27;;
23617;SDS011;18207;32.078;34.818;2023-07-29T14:20:02;1.33;;;1.23;;
23617;SDS011;18207;32.078;34.818;2023-07-29T14:22:35;2.20;;;1.30;;
23617;SDS011;18207;32.078;34.818;2023-07-29T14:25:06;1.38;;;1.27;;
23617;SDS011;18207;32.078;34.818;2023-07-29T14:27:36;1.58;;;1.35;;
23617;SDS011;18207;32.078;34.818;2023-07-29T14:30:07;1.42;;;1.30;;
23617;SDS011;18207;32.078;34.818;2023-07-29T14:32:38;1.20;;;1.10;;
23617;SDS011;18207;32.078;34.818;2023-07-29T14:35:10;1.27;;;1.20;;
23617;SDS011;18207;32.078;34.818;2023-07-29T14:37:40;1.13;;;1.08;;
23617;SDS011;18207;32.078;34.818;2023-07-29T14:40:10;1.85;;;1.70;;
23617;SDS011;18207;32.078;34.818;2023-07-29T14:42:41;1.58;;;1.48;;
23617;SDS011;18207;32.078;34.818;2023-07-29T14:45:11;1.88;;;1.70;;
23617;SDS011;18207;32.078;34.818;2023-07-29T14:47:41;1.70;;;1.60;;
23617;SDS011;18207;32.078;34.818;2023-07-29T14:50:17;2.22;;;1.88;;
23617;SDS011;18207;32.078;34.818;2023-07-29T14:52:50;1.88;;;1.77;;
23617;SDS011;18207;32.078;34.818;2023-07-29T14:55:23;1.83;;;1.60;;
23617;SDS011;18207;32.078;34.818;2023-07-29T14:57:53;1.55;;;1.40;;
23617;SDS011;18207;32.078;34.818;2023-07-29T15:00:24;1.50;;;1.40;;
23617;SDS011;18207;32.078;34.818;2023-07-29T15:02:54;1.73;;;1.63;;
23617;SDS011;18207;32.078;34.818;2023-07-29T15:05:27;1.83;;;1.55;;